Sant Martí Sacalm





Hora UTC 21:25
Temperatura 19.4 ºC
Humitat 65.6 %
Pressió 1021.4 hPa
Pluja 0.0 mm
Velocitat vent 2.7 km/h
Direcció vent SW
Radiació solar 0.1 W/m²

Dades diàries 2022-08-19



Hora UTC (hivern +1h; estiu +2h)
Temperatura (ºC) Humitat (%) Pressió (hPa) Velocitat vent (km/h) Precipitació (mm) Radiació solar (W/m²)
Hora UTC Aire Humitat Pressió Vel. Dir. Vel. Max Dir. Intent. màx 5 min. Rad. Sol.
00:05 14.3 84.4 1018.1 10.1 SW 10.1 SW 0.0 0.1
00:10 14.4 84.7 1018.1 10.9 SW 12.4 SW 0.0 0.1
00:15 14.5 85.6 1018.0 11.1 SW 13.8 SW 0.0 0.1
00:20 14.6 85.1 1018.0 9.9 SW 12.0 SW 0.0 0.1
00:25 14.7 84.4 1017.9 11.3 SW 14.1 SW 0.0 0.1
00:30 14.9 83.6 1017.8 11.7 SW 14.1 SW 0.0 0.1
00:35 14.9 83.6 1017.8 11.3 SW 12.7 SW 0.0 0.1
00:40 14.7 84.5 1017.8 10.0 SW 12.4 SSW 0.0 0.1
00:45 14.4 85.3 1017.9 9.3 SW 11.0 SW 0.0 0.1
00:50 14.4 85.5 1017.9 9.6 SSW 11.0 SW 0.0 0.1
00:55 14.1 86.3 1017.9 10.2 SW 11.7 SW 0.0 0.1
01:00 14.0 86.5 1017.9 10.3 SW 12.7 SW 0.0 0.1
01:05 14.2 85.6 1018.0 8.0 SW 10.6 SW 0.0 0.1
01:10 14.3 85.0 1018.0 6.9 SW 8.5 SW 0.0 0.1
01:15 14.5 83.3 1018.0 7.5 SW 8.5 WSW 0.0 0.1
01:20 14.4 82.9 1017.9 8.8 SW 11.3 SW 0.0 0.1
01:25 14.6 81.0 1017.8 8.9 SW 11.0 SW 0.0 0.1
01:30 14.5 82.1 1017.8 10.3 WSW 13.4 SW 0.0 0.1
01:35 14.6 83.8 1017.8 9.1 SW 13.4 SW 0.0 0.1
01:40 14.5 85.0 1017.8 8.6 WSW 10.6 WSW 0.0 0.1
01:45 14.6 85.3 1017.8 4.9 SW 7.1 WSW 0.0 0.1
01:50 14.9 83.9 1017.9 4.4 SW 5.7 SW 0.0 0.1
01:55 14.8 83.9 1017.9 7.4 SSW 9.9 SSW 0.0 0.1
02:00 14.8 81.9 1017.9 8.1 SW 10.3 SW 0.0 0.1
02:05 14.7 82.0 1018.0 7.7 SW 11.0 SW 0.0 0.1
02:10 14.2 83.3 1018.0 10.0 SW 13.8 SW 0.0 0.1
02:15 14.0 83.9 1017.9 12.3 SW 15.5 SW 0.0 0.1
02:20 13.5 86.1 1017.9 12.5 SW 15.2 SW 0.0 0.1
02:25 13.1 88.4 1017.9 12.5 SW 16.6 SW 0.0 0.1
02:30 13.0 88.9 1017.8 16.0 SW 21.2 SW 0.0 0.1
02:35 13.2 89.3 1017.8 16.6 SW 21.5 SW 0.0 0.1
02:40 13.4 88.9 1017.8 16.3 SW 21.2 SW 0.0 0.1
02:45 13.4 87.6 1017.8 14.0 SW 17.7 SW 0.0 0.1
02:50 13.4 87.6 1017.8 12.7 SSW 15.9 SSW 0.0 0.1
02:55 13.3 88.4 1017.8 12.0 SSW 15.9 SSW 0.0 0.1
03:00 13.3 88.7 1017.8 11.6 SW 14.8 SSW 0.0 0.1
03:05 13.2 88.0 1017.8 11.6 SW 14.5 SSW 0.0 0.1
03:10 13.3 86.4 1017.9 11.3 SW 14.1 WSW 0.0 0.1
03:15 13.6 84.4 1017.9 9.0 WSW 10.6 WSW 0.0 0.1
03:20 13.9 81.8 1018.0 9.9 SW 11.7 SW 0.0 0.1
03:25 14.0 80.6 1018.0 8.5 SW 10.3 WSW 0.0 0.1
03:30 14.2 77.9 1018.1 8.0 WSW 9.9 WSW 0.0 0.1
03:35 14.3 77.5 1018.1 7.6 SW 9.9 SW 0.0 0.1
03:40 14.3 77.3 1018.1 5.7 SW 8.5 SW 0.0 0.1
03:45 14.1 78.6 1018.2 8.0 SW 11.7 SW 0.0 0.1
03:50 13.8 80.9 1018.2 9.9 SW 13.4 SW 0.0 0.1
03:55 13.6 84.2 1018.1 10.4 SW 12.7 SW 0.0 0.1
04:00 13.3 86.5 1018.1 11.5 SW 16.2 SW 0.0 0.1
04:05 13.2 88.7 1018.2 13.2 SW 17.0 WSW 0.0 0.1
04:10 13.1 89.8 1018.2 13.0 SW 16.6 SW 0.0 0.1
04:15 13.2 90.0 1018.1 12.8 SW 15.9 SW 0.0 0.1
04:20 13.0 90.4 1018.2 12.4 SW 15.9 SW 0.0 0.1
04:25 13.1 89.7 1018.3 13.1 WSW 19.1 SW 0.0 0.1
04:30 13.3 89.0 1018.4 12.3 WSW 17.0 WSW 0.0 0.1
04:35 13.2 88.9 1018.5 11.1 SW 15.2 WSW 0.0 0.1
04:40 13.1 87.9 1018.5 11.7 SW 15.9 WSW 0.0 0.1
04:45 13.5 89.5 1018.4 13.5 SW 18.7 WSW 0.0 0.1
04:50 13.3 90.7 1018.4 13.9 SW 18.0 SW 0.0 0.3
04:55 12.9 91.0 1018.5 12.1 SW 16.2 SW 0.0 0.9
05:00 12.9 91.1 1018.6 13.2 SW 17.0 WSW 0.0 1.9
05:05 13.0 91.2 1018.6 13.0 SW 14.8 SW 0.0 3.7
05:10 12.9 91.9 1018.7 12.0 SW 15.9 WSW 0.0 6.8
05:15 12.9 92.7 1018.7 11.7 SW 15.9 WSW 0.0 13.9
05:20 12.9 93.4 1018.7 8.9 SW 11.3 SW 0.0 12.3
05:25 12.9 93.8 1018.7 8.6 SW 11.0 SSW 0.0 25.1
05:30 13.0 93.1 1018.8 8.8 SW 10.6 SSW 0.0 46.1
05:35 13.1 92.4 1018.8 8.9 SW 10.6 SW 0.0 56.1
05:40 13.1 92.6 1018.9 9.9 SW 11.3 SSW 0.0 68.7
05:45 12.9 93.4 1018.9 9.7 SW 11.3 SW 0.0 81.6
05:50 12.8 93.9 1018.9 9.3 SW 10.3 SSW 0.0 95.5
05:55 12.8 94.3 1019.0 10.0 SW 11.3 SSW 0.0 109.7
06:00 12.8 93.5 1019.0 8.8 SW 10.6 SW 0.0 123.6
06:05 13.0 91.0 1019.0 11.2 SW 13.1 SW 0.0 137.3
06:10 13.2 89.4 1019.0 11.8 SW 13.1 SW 0.0 152.3
06:15 13.3 88.2 1019.1 10.5 SW 12.7 SW 0.0 166.0
06:20 13.5 87.9 1019.1 7.8 SW 10.3 SW 0.0 180.1
06:25 13.7 86.9 1019.1 7.8 SW 9.2 SW 0.0 196.6
06:30 13.9 84.3 1019.1 5.5 SW 7.4 SW 0.0 213.3
06:35 14.4 84.4 1019.2 2.8 ESE 6.4 E 0.0 229.4
06:40 15.2 77.0 1019.2 4.5 NE 7.4 NE 0.0 246.6
06:45 16.1 70.5 1019.1 3.2 SW 9.9 WSW 0.0 264.1
06:50 15.2 79.6 1019.2 8.5 SW 10.3 WSW 0.0 282.2
06:55 14.7 82.7 1019.2 8.7 SW 10.3 SW 0.0 299.8
07:00 14.4 83.6 1019.2 8.8 SSW 10.3 SW 0.0 317.0
07:05 14.2 86.2 1019.2 10.2 SW 11.7 SSW 0.0 333.6
07:10 14.1 86.6 1019.3 11.9 SW 14.1 SW 0.0 349.2
07:15 14.2 87.2 1019.4 10.7 SW 13.4 SW 0.0 364.9
07:20 14.2 88.4 1019.5 10.3 SSW 12.7 SSW 0.0 381.0
07:25 14.0 90.1 1019.5 11.7 SW 13.8 SW 0.0 396.5
07:30 14.3 88.9 1019.5 12.1 SW 15.5 WSW 0.0 412.4
07:35 14.3 88.9 1019.6 10.5 SW 12.7 SW 0.0 428.5
07:40 14.6 87.8 1019.6 9.8 SSW 12.7 SSW 0.0 444.7
07:45 14.8 86.0 1019.6 10.7 SW 13.1 SW 0.0 460.8
07:50 15.1 85.3 1019.6 12.0 SW 14.8 SW 0.0 475.5
07:55 15.1 85.4 1019.6 13.8 SW 17.7 SSW 0.0 490.3
08:00 14.8 86.6 1019.6 16.0 SW 20.1 SSW 0.0 506.0
08:05 15.0 87.6 1019.6 16.3 SW 20.8 SW 0.0 521.2
08:10 15.3 86.0 1019.6 16.1 SW 20.5 SW 0.0 535.7
08:15 15.1 86.5 1019.7 14.7 SW 17.7 SW 0.0 549.8
08:20 15.0 87.5 1019.7 12.4 SSW 14.5 SW 0.0 564.3
08:25 15.4 86.8 1019.7 10.7 SW 14.5 SW 0.0 579.0
08:30 15.8 83.6 1019.7 10.5 SW 12.7 SW 0.0 592.9
08:35 16.2 81.8 1019.7 10.8 SW 13.8 SW 0.0 607.1
08:40 16.5 80.9 1019.7 11.0 SW 14.1 SW 0.0 620.9
08:45 16.8 80.0 1019.7 10.7 SW 13.4 WSW 0.0 634.4
08:50 17.2 78.8 1019.7 10.0 SSW 13.1 SW 0.0 647.6
08:55 17.4 76.6 1019.8 10.1 SSW 13.4 SSW 0.0 660.7
09:00 17.7 75.6 1019.9 8.1 SSW 12.0 SW 0.0 673.6
09:05 17.8 73.8 1020.0 11.2 SW 14.5 SW 0.0 685.2
09:10 17.6 73.8 1020.0 12.4 SW 15.5 SW 0.0 696.7
09:15 17.6 74.6 1020.0 10.4 SW 14.5 SSW 0.0 708.5
09:20 17.8 74.2 1020.1 7.8 SW 10.3 SW 0.0 719.8
09:25 18.1 73.6 1020.1 7.2 SSW 9.9 SSW 0.0 730.7
09:30 18.4 72.9 1020.0 7.7 SW 10.6 SW 0.0 741.9
09:35 18.7 72.2 1020.0 8.8 SW 12.7 WSW 0.0 752.4
09:40 18.7 70.7 1020.1 7.9 SW 11.3 SW 0.0 761.9
09:45 18.9 69.6 1020.1 6.0 SW 8.5 SW 0.0 771.9
09:50 19.4 66.2 1020.2 5.7 SW 9.2 SW 0.0 774.0
09:55 19.9 59.6 1020.1 2.9 SW 7.1 WSW 0.0 657.4
10:00 20.5 54.7 1020.1 3.7 SSW 8.8 SSW 0.0 800.0
10:05 20.9 52.4 1020.1 4.8 SSW 9.2 SSW 0.0 808.0
10:10 21.0 51.9 1020.2 8.0 SW 11.0 WSW 0.0 816.0
10:15 21.0 54.7 1020.2 8.1 SSW 11.3 SSW 0.0 825.0
10:20 21.1 55.8 1020.2 8.3 SW 11.0 SW 0.0 832.0
10:25 21.4 50.7 1020.2 9.4 SW 12.0 SW 0.0 840.0
10:30 21.4 48.7 1020.2 7.8 SW 12.4 SW 0.0 847.0
10:35 21.4 46.5 1020.2 5.9 SW 9.2 SW 0.0 853.0
10:40 21.8 42.9 1020.2 6.2 SSW 11.0 SSW 0.0 858.0
10:45 21.9 44.1 1020.1 9.1 SW 14.1 SW 0.0 863.0
10:50 21.8 44.1 1020.2 10.2 SSW 14.8 SSW 0.0 867.0
10:55 21.9 47.6 1020.1 10.5 SW 14.5 SSW 0.0 872.0
11:00 22.2 40.1 1020.2 8.2 SW 14.5 SSW 0.0 878.0
11:05 22.2 39.7 1020.2 8.2 SSW 14.1 SW 0.0 882.0
11:10 22.4 40.3 1020.2 9.6 SW 15.9 SSW 0.0 885.0
11:15 22.4 42.4 1020.1 11.2 SW 17.3 SW 0.0 887.0
11:20 22.7 42.3 1020.1 9.7 SW 14.8 SW 0.0 890.0
11:25 22.7 41.9 1020.1 9.8 WSW 16.2 WSW 0.0 891.0
11:30 23.2 42.7 1020.1 6.3 WSW 14.8 WSW 0.0 894.0
11:35 23.3 40.6 1020.1 2.2 WNW 6.4 WSW 0.0 897.0
11:40 23.9 44.8 1020.1 7.5 WSW 13.4 SSW 0.0 896.0
11:45 23.8 42.7 1020.1 7.9 SW 13.4 SW 0.0 896.0
11:50 23.6 42.9 1020.1 7.3 SW 18.0 SW 0.0 896.0
11:55 24.0 43.1 1020.0 9.5 SW 14.8 SW 0.0 898.0
12:00 24.2 42.5 1020.1 5.1 W 10.3 WSW 0.0 897.0
12:05 23.6 43.9 1020.1 7.1 WSW 15.5 SW 0.0 897.0
12:10 23.5 44.9 1020.0 9.2 W 18.7 W 0.0 896.0
12:15 23.6 42.5 1020.0 8.9 WNW 13.4 WSW 0.0 895.0
12:20 23.4 49.5 1020.0 9.4 N 16.2 NNE 0.0 866.0
12:25 23.5 49.6 1019.9 11.3 NNE 24.7 NNE 0.0 889.0
12:30 23.6 48.5 1019.8 12.2 NNE 28.6 NE 0.0 885.0
12:35 23.8 48.1 1019.9 11.3 NE 21.2 ENE 0.0 882.0
12:40 24.0 47.3 1019.9 8.6 NE 18.0 NE 0.0 881.0
12:45 24.2 43.9 1019.9 7.3 NE 15.2 NE 0.0 877.0
12:50 24.0 45.7 1019.9 8.3 SW 14.1 SSW 0.0 873.0
12:55 24.1 44.7 1019.9 6.4 SSE 13.4 S 0.0 868.0
13:00 24.4 43.8 1019.9 3.5 WSW 10.6 WSW 0.0 862.0
13:05 24.9 45.0 1019.8 6.1 S 14.5 SSE 0.0 860.0
13:10 24.8 44.1 1019.9 6.6 W 24.4 SSE 0.0 853.0
13:15 25.1 45.2 1019.8 5.7 SSE 13.4 S 0.0 829.0
13:20 25.4 44.7 1019.8 4.8 SE 12.7 SE 0.0 835.0
13:25 25.9 42.6 1019.8 6.1 SSE 18.7 S 0.0 833.0
13:30 25.5 42.8 1019.8 6.1 S 15.5 SE 0.0 827.0
13:35 24.7 43.3 1019.8 9.9 SSE 18.7 SSE 0.0 819.0
13:40 24.8 44.7 1019.8 6.0 SSE 14.1 SSE 0.0 809.0
13:45 25.5 43.6 1019.8 5.2 SSE 11.7 SSE 0.0 803.0
13:50 25.5 42.5 1019.7 7.9 S 16.6 S 0.0 792.2
13:55 24.9 43.3 1019.7 9.9 S 22.6 S 0.0 781.5
14:00 25.1 43.2 1019.7 6.8 ESE 18.0 ESE 0.0 774.0
14:05 25.4 42.9 1019.7 10.2 ESE 19.1 ESE 0.0 751.9
14:10 25.6 41.9 1019.7 6.7 S 19.1 ESE 0.0 734.2
14:15 25.5 42.3 1019.7 8.8 SE 21.5 ESE 0.0 721.1
14:20 25.3 42.0 1019.7 10.0 SSE 20.5 SE 0.0 632.8
14:25 25.3 41.2 1019.8 4.2 SE 11.3 S 0.0 722.1
14:30 25.5 41.3 1019.8 5.9 ENE 17.0 NE 0.0 711.4
14:35 25.5 41.3 1019.8 10.3 SE 19.4 SSE 0.0 699.2
14:40 25.6 40.6 1019.8 8.4 ESE 17.3 ESE 0.0 687.0
14:45 25.3 41.8 1019.8 7.1 SE 17.3 SSE 0.0 671.8
14:50 25.4 41.5 1019.8 6.8 SE 17.7 S 0.0 656.1
14:55 25.7 40.8 1019.7 11.2 ENE 18.4 E 0.0 647.7
15:00 25.7 39.9 1019.7 12.3 ENE 21.5 E 0.0 636.7
15:05 25.8 40.2 1019.6 10.6 ENE 22.6 NE 0.0 625.5
15:10 25.6 42.6 1019.6 7.4 SE 25.4 SE 0.0 613.8
15:15 25.1 46.3 1019.6 9.4 SE 21.5 ESE 0.0 613.3
15:20 25.1 46.4 1019.7 9.6 SSE 21.5 S 0.0 584.5
15:25 24.4 48.0 1019.7 12.5 SSE 22.6 SSE 0.0 558.1
15:30 24.3 49.6 1019.6 10.3 S 22.6 SSE 0.0 560.8
15:35 24.2 49.3 1019.6 11.5 S 24.0 SSE 0.0 559.5
15:40 24.3 49.2 1019.6 9.3 SE 21.9 ESE 0.0 480.3
15:45 24.2 51.1 1019.7 12.4 SSE 23.0 S 0.0 420.5
15:50 23.6 52.8 1019.7 9.9 SSE 20.5 SSE 0.0 456.1
15:55 24.0 53.0 1019.7 7.9 SE 14.1 SE 0.0 472.1
16:00 23.9 52.2 1019.6 11.3 SSE 24.4 SSE 0.0 473.6
16:05 23.4 54.3 1019.6 12.2 SE 23.3 SSE 0.0 450.4
16:10 23.4 54.8 1019.7 11.8 ESE 19.4 ESE 0.0 432.1
16:15 23.5 55.9 1019.6 9.8 ESE 17.7 ESE 0.0 417.8
16:20 23.7 54.0 1019.6 13.1 SE 20.5 SE 0.0 403.4
16:25 23.5 55.2 1019.7 7.9 E 18.4 SE 0.0 387.2
16:30 24.1 53.5 1019.7 11.1 ENE 18.7 ENE 0.0 382.2
16:35 24.1 53.3 1019.7 11.9 ENE 18.4 ENE 0.0 356.2
16:40 23.9 52.3 1019.7 11.7 NE 19.4 ENE 0.0 334.7
16:45 23.7 53.9 1019.7 9.4 NE 18.7 ENE 0.0 317.7
16:50 23.6 55.4 1019.7 10.8 ENE 18.7 ENE 0.0 300.4
16:55 23.6 56.5 1019.7 10.5 ENE 18.4 E 0.0 286.1
17:00 23.5 57.0 1019.8 9.7 NE 16.2 ENE 0.0 268.5
17:05 23.4 57.1 1019.8 9.2 ENE 14.5 ENE 0.0 255.8
17:10 23.9 55.2 1019.7 8.8 ENE 12.7 E 0.0 242.3
17:15 24.0 55.3 1019.7 5.0 ENE 11.3 NE 0.0 228.1
17:20 23.7 56.2 1019.7 8.2 NE 15.2 ENE 0.0 212.3
17:25 23.1 58.3 1019.7 8.6 NNE 13.8 NNE 0.0 194.8
17:30 22.2 61.3 1019.7 8.5 NNE 13.4 NNE 0.0 180.1
17:35 21.9 62.6 1019.7 6.1 NNE 9.2 NNE 0.0 164.8
17:40 22.0 62.0 1019.7 5.8 NE 8.5 ENE 0.0 151.3
17:45 22.1 61.3 1019.7 5.5 NE 8.1 NE 0.0 137.8
17:50 22.1 61.3 1019.7 5.3 NE 7.8 NE 0.0 123.9
17:55 21.9 61.8 1019.7 5.7 NNE 8.5 NE 0.0 110.7
18:00 21.5 62.7 1019.8 5.6 NNE 9.9 NNE 0.0 79.1
18:05 21.2 63.0 1019.8 5.1 NNE 8.5 NNE 0.0 30.5
18:10 21.1 63.7 1019.9 5.2 NNE 7.8 NNE 0.0 29.7
18:15 21.0 63.9 1019.9 5.2 NNE 6.7 NNE 0.0 56.8
18:20 20.9 63.9 1019.9 2.9 NNE 4.6 N 0.0 51.0
18:25 21.0 62.8 1019.9 1.8 NNE 3.5 NE 0.0 39.8
18:30 20.9 62.7 1020.0 4.0 NE 6.4 NE 0.0 24.5
18:35 20.4 65.4 1020.0 4.1 NE 6.4 NNE 0.0 12.6
18:40 20.0 67.5 1020.1 3.8 NE 6.0 NE 0.0 9.3
18:45 19.7 68.3 1020.1 3.3 N 4.6 NNE 0.0 6.6
18:50 19.7 66.8 1020.2 2.4 ENE 5.0 E 0.0 4.7
18:55 19.7 65.8 1020.2 2.6 ENE 4.2 ENE 0.0 3.1
19:00 19.7 64.8 1020.3 1.0 NE 2.8 NE 0.0 1.8
19:05 19.7 64.1 1020.3 1.8 NE 4.6 ENE 0.0 1.0
19:10 19.6 64.5 1020.4 3.7 ENE 4.6 ENE 0.0 0.3
19:15 19.6 65.9 1020.4 4.1 NE 6.0 NNE 0.0 0.2
19:20 19.4 68.0 1020.5 2.2 NE 4.2 NE 0.0 0.1
19:25 19.4 67.2 1020.6 0.0 NNE 0.0 N 0.0 0.1
19:30 19.6 65.7 1020.6 0.0 NNE 0.0 NNW 0.0 0.1
19:35 19.8 64.1 1020.7 0.3 NNE 2.1 NNE 0.0 0.1
19:40 19.9 63.6 1020.7 1.4 NNE 5.0 NE 0.0 0.1
19:45 19.7 65.3 1020.7 3.0 NE 5.0 NE 0.0 0.1
19:50 19.6 66.7 1020.8 1.1 NE 2.5 NE 0.0 0.1
19:55 19.5 65.5 1020.8 0.3 SE 2.1 SE 0.0 0.1
20:00 19.7 63.1 1020.8 3.1 SSW 4.2 SW 0.0 0.1
20:05 19.7 64.0 1020.9 2.9 SW 3.9 SW 0.0 0.1
20:10 19.6 64.5 1020.9 2.9 SW 3.9 SW 0.0 0.1
20:15 19.6 65.2 1021.0 4.0 SW 4.6 SW 0.0 0.1
20:20 19.5 66.4 1021.0 4.7 SSW 6.4 SSW 0.0 0.1
20:25 19.3 67.9 1021.0 4.4 SW 5.3 SW 0.0 0.1
20:30 19.4 67.2 1021.1 5.1 SW 5.3 SW 0.0 0.1
20:35 19.5 66.0 1021.1 4.0 SW 5.3 SW 0.0 0.1
20:40 19.5 65.8 1021.2 4.3 SW 5.0 SW 0.0 0.1
20:45 19.6 66.0 1021.2 4.5 SW 5.3 SW 0.0 0.1
20:50 19.6 68.0 1021.2 5.0 SW 5.3 SW 0.0 0.1
20:55 19.5 68.5 1021.2 4.6 WSW 5.3 WSW 0.0 0.1
21:00 19.5 66.5 1021.2 4.8 SW 5.7 SW 0.0 0.1
21:05 19.4 66.6 1021.2 4.1 SW 5.3 WSW 0.0 0.1
21:10 19.3 67.0 1021.2 3.8 SW 5.3 SW 0.0 0.1
21:15 19.2 67.2 1021.3 4.1 WSW 5.7 W 0.0 0.1
21:20 19.4 66.1 1021.3 3.2 SW 5.0 W 0.0 0.1
21:25 19.4 65.6 1021.4 2.7 SW 4.2 WSW 0.0 0.1
Màxima 26.1 94.3 1021.4 16.6 SW 28.6 NE 0.0 898.0
Mínima 12.7 39.7 1017.8
Total 0.0